Saigon Express — VRBT7 — position and weather

sailwx.info

Track history (hours):
 
Tides and Currents Weather Stations Pressure Air Temp Water Temp Dewpoint Dewpoint Depression Visibility Wind Speed Wind Dir Waves Ship Positions

Saigon Express

Last reported at 2014-Dec-14 22:31 UTC. Time now 2014-Dec-18 19:33 UTC.
Position N 32°05' W 080°59'.

Length 260 m; draft 11.8 m.

Type: Ship (hazmat cat A). MMSI: 477106800.

Date/timePositionNaut miles runAvg speedWind from/ knotsBaromVisibWave heightAir tempDewpointWater temp
2014-Dec-14 22:31N 32°05' W 080°59'7 6.7
2014-Dec-14 21:33N 32°06' W 081°07'3 2.7
2014-Dec-14 20:31N 32°08' W 081°09'0 0.0
2014-Dec-14 19:13N 32°08' W 081°09'0 0.0
2014-Dec-14 18:19N 32°08' W 081°09'0 0.0
2014-Dec-14 17:31N 32°08' W 081°09'0 0.0
2014-Dec-14 16:16N 32°08' W 081°09'0 0.0
2014-Dec-14 15:31N 32°08' W 081°09'0 0.0
2014-Dec-14 14:31N 32°08' W 081°09'0 0.0
2014-Dec-14 13:31N 32°08' W 081°09'0 0.0
2014-Dec-14 12:16N 32°08' W 081°09'0 0.0
2014-Dec-14 10:16N 32°08' W 081°09'0 0.0
2014-Dec-14 09:31N 32°08' W 081°09'0 0.0
2014-Dec-14 08:31N 32°08' W 081°09'0 0.0
2014-Dec-14 07:31N 32°08' W 081°09'0 0.0
2014-Dec-14 06:25N 32°08' W 081°09'0 0.0
2014-Dec-14 05:31N 32°08' W 081°09'0 0.0
2014-Dec-14 04:28N 32°08' W 081°09'0 0.0
2014-Dec-14 03:31N 32°08' W 081°09'0 0.0
2014-Dec-14 02:34N 32°08' W 081°09'0 0.0
2014-Dec-14 01:30N 32°08' W 081°09'0 0.0
2014-Dec-13 23:27N 32°08' W 081°09'0 0.0
2014-Dec-13 22:31N 32°08' W 081°09'0 0.0
2014-Dec-13 21:23N 32°08' W 081°09'3 3.1
2014-Dec-13 20:33N 32°06' W 081°07'  
2014-Dec-11 07:33N 39°49' W 073°51'2914.7
2014-Dec-11 05:33N 40°18' W 073°49'9 8.8
2014-Dec-11 04:33N 40°27' W 073°50'1110.7
2014-Dec-11 03:34N 40°33' W 074°02'8 7.8
2014-Dec-11 02:33N 40°39' W 074°09'1 0.8
2014-Dec-11 01:32N 40°40' W 074°09'0 0.0
2014-Dec-11 00:32N 40°40' W 074°09'0 0.0
2014-Dec-10 23:32N 40°40' W 074°09'0 0.0
2014-Dec-10 22:29N 40°40' W 074°09'0 0.0
2014-Dec-10 21:32N 40°40' W 074°09'0 0.0
2014-Dec-10 20:32N 40°40' W 074°09'0 0.0
2014-Dec-10 19:32N 40°40' W 074°09'0 0.0
2014-Dec-10 18:32N 40°40' W 074°09'0 0.0
2014-Dec-10 17:32N 40°40' W 074°09'0 0.0
2014-Dec-10 16:32N 40°40' W 074°09'0 0.0
2014-Dec-10 15:32N 40°40' W 074°09'0 0.0
2014-Dec-10 14:32N 40°40' W 074°09'0 0.0
2014-Dec-10 13:32N 40°40' W 074°09'0 0.0
2014-Dec-10 12:32N 40°40' W 074°09'0 0.0
2014-Dec-10 11:29N 40°40' W 074°09'0 0.0
2014-Dec-10 10:29N 40°40' W 074°09'0 0.0
2014-Dec-10 09:32N 40°40' W 074°09'0 0.0
2014-Dec-10 08:29N 40°40' W 074°09'0 0.0
2014-Dec-10 07:29N 40°40' W 074°09'0 0.0
2014-Dec-10 06:29N 40°40' W 074°09'0 0.0
2014-Dec-10 05:29N 40°40' W 074°09'0 0.0
2014-Dec-10 04:29N 40°40' W 074°09'0 0.0
2014-Dec-10 03:29N 40°40' W 074°09'0 0.0
2014-Dec-10 02:29N 40°40' W 074°09'0 0.0
2014-Dec-10 01:32N 40°40' W 074°09'0 0.0
2014-Dec-10 00:32N 40°40' W 074°09'0 0.0
2014-Dec-09 23:34N 40°40' W 074°09'3 2.9
2014-Dec-09 22:33N 40°39' W 074°05'4 3.8
2014-Dec-09 21:28N 40°36' W 074°02'0 0.0
2014-Dec-09 20:26N 40°36' W 074°02'4 4.2
2014-Dec-09 19:33N 40°32' W 074°01'1111.3
2014-Dec-09 18:33N 40°28' W 073°47'5112.2
2014-Dec-09 14:22N 40°31' W 072°40'1518.5
2014-Dec-09 13:33N 40°31' W 072°20'1919.0
2014-Dec-09 12:33N 40°31' W 071°55'1919.5
2014-Dec-09 11:33N 40°32' W 071°30'4319.9
2014-Dec-09 09:25N 40°33' W 070°34'2219.9
2014-Dec-09 08:19N 40°33' W 070°05'2019.6
2014-Dec-09 07:19N 40°34' W 069°39'  
2014-Dec-05 03:33N 40°00' W 031°51'1817.9
2014-Dec-05 02:33N 40°00' W 031°28'1818.1
2014-Dec-05 01:33N 40°01' W 031°04'1817.9
2014-Dec-05 00:33N 39°60' W 030°41'1918.0
2014-Dec-04 23:30N 39°60' W 030°16'  
Track history (hours):
 
Tides and Currents Weather Stations Pressure Air Temp Water Temp Dewpoint Dewpoint Depression Visibility Wind Speed Wind Dir Waves Ship Positions

Saigon Express

Last reported at 2014-Dec-14 22:31 UTC. Time now 2014-Dec-18 19:33 UTC.
Position N 32°05' W 080°59'.

Length 260 m; draft 11.8 m.

Type: Ship (hazmat cat A). MMSI: 477106800.

Date/timePositionNaut miles runAvg speedWind from/ knotsBaromVisibWave heightAir tempDewpointWater temp
2014-Dec-14 22:31N 32°05' W 080°59'7 6.7
2014-Dec-14 21:33N 32°06' W 081°07'3 2.7
2014-Dec-14 20:31N 32°08' W 081°09'0 0.0
2014-Dec-14 19:13N 32°08' W 081°09'0 0.0
2014-Dec-14 18:19N 32°08' W 081°09'0 0.0
2014-Dec-14 17:31N 32°08' W 081°09'0 0.0
2014-Dec-14 16:16N 32°08' W 081°09'0 0.0
2014-Dec-14 15:31N 32°08' W 081°09'0 0.0
2014-Dec-14 14:31N 32°08' W 081°09'0 0.0
2014-Dec-14 13:31N 32°08' W 081°09'0 0.0
2014-Dec-14 12:16N 32°08' W 081°09'0 0.0
2014-Dec-14 10:16N 32°08' W 081°09'0 0.0
2014-Dec-14 09:31N 32°08' W 081°09'0 0.0
2014-Dec-14 08:31N 32°08' W 081°09'0 0.0
2014-Dec-14 07:31N 32°08' W 081°09'0 0.0
2014-Dec-14 06:25N 32°08' W 081°09'0 0.0
2014-Dec-14 05:31N 32°08' W 081°09'0 0.0
2014-Dec-14 04:28N 32°08' W 081°09'0 0.0
2014-Dec-14 03:31N 32°08' W 081°09'0 0.0
2014-Dec-14 02:34N 32°08' W 081°09'0 0.0
2014-Dec-14 01:30N 32°08' W 081°09'0 0.0
2014-Dec-13 23:27N 32°08' W 081°09'0 0.0
2014-Dec-13 22:31N 32°08' W 081°09'0 0.0
2014-Dec-13 21:23N 32°08' W 081°09'3 3.1
2014-Dec-13 20:33N 32°06' W 081°07'  
2014-Dec-11 07:33N 39°49' W 073°51'2914.7
2014-Dec-11 05:33N 40°18' W 073°49'9 8.8
2014-Dec-11 04:33N 40°27' W 073°50'1110.7
2014-Dec-11 03:34N 40°33' W 074°02'8 7.8
2014-Dec-11 02:33N 40°39' W 074°09'1 0.8
2014-Dec-11 01:32N 40°40' W 074°09'0 0.0
2014-Dec-11 00:32N 40°40' W 074°09'0 0.0
2014-Dec-10 23:32N 40°40' W 074°09'0 0.0
2014-Dec-10 22:29N 40°40' W 074°09'0 0.0
2014-Dec-10 21:32N 40°40' W 074°09'0 0.0
2014-Dec-10 20:32N 40°40' W 074°09'0 0.0
2014-Dec-10 19:32N 40°40' W 074°09'0 0.0
2014-Dec-10 18:32N 40°40' W 074°09'0 0.0
2014-Dec-10 17:32N 40°40' W 074°09'0 0.0
2014-Dec-10 16:32N 40°40' W 074°09'0 0.0
2014-Dec-10 15:32N 40°40' W 074°09'0 0.0
2014-Dec-10 14:32N 40°40' W 074°09'0 0.0
2014-Dec-10 13:32N 40°40' W 074°09'0 0.0
2014-Dec-10 12:32N 40°40' W 074°09'0 0.0
2014-Dec-10 11:29N 40°40' W 074°09'0 0.0
2014-Dec-10 10:29N 40°40' W 074°09'0 0.0
2014-Dec-10 09:32N 40°40' W 074°09'0 0.0
2014-Dec-10 08:29N 40°40' W 074°09'0 0.0
2014-Dec-10 07:29N 40°40' W 074°09'0 0.0
2014-Dec-10 06:29N 40°40' W 074°09'0 0.0
2014-Dec-10 05:29N 40°40' W 074°09'0 0.0
2014-Dec-10 04:29N 40°40' W 074°09'0 0.0
2014-Dec-10 03:29N 40°40' W 074°09'0 0.0
2014-Dec-10 02:29N 40°40' W 074°09'0 0.0
2014-Dec-10 01:32N 40°40' W 074°09'0 0.0
2014-Dec-10 00:32N 40°40' W 074°09'0 0.0
2014-Dec-09 23:34N 40°40' W 074°09'3 2.9
2014-Dec-09 22:33N 40°39' W 074°05'4 3.8
2014-Dec-09 21:28N 40°36' W 074°02'0 0.0
2014-Dec-09 20:26N 40°36' W 074°02'4 4.2
2014-Dec-09 19:33N 40°32' W 074°01'1111.3
2014-Dec-09 18:33N 40°28' W 073°47'5112.2
2014-Dec-09 14:22N 40°31' W 072°40'1518.5
2014-Dec-09 13:33N 40°31' W 072°20'1919.0
2014-Dec-09 12:33N 40°31' W 071°55'1919.5
2014-Dec-09 11:33N 40°32' W 071°30'4319.9
2014-Dec-09 09:25N 40°33' W 070°34'2219.9
2014-Dec-09 08:19N 40°33' W 070°05'2019.6
2014-Dec-09 07:19N 40°34' W 069°39'  
2014-Dec-05 03:33N 40°00' W 031°51'1817.9
2014-Dec-05 02:33N 40°00' W 031°28'1818.1
2014-Dec-05 01:33N 40°01' W 031°04'1817.9
2014-Dec-05 00:33N 39°60' W 030°41'1918.0
2014-Dec-04 23:30N 39°60' W 030°16'  

Dump ship's entire track history